Time;durP1;ratioP1;P1;durP2;ratioP2;P2;SDS_P1;SDS_P2;PMS_P1;PMS_P2;Temp;Humidity;BMP_temperature;BMP_pressure;BME280_temperature;BME280_humidity;BME280_pressure;Samples;Min_cycle;Max_cycle;Signal;HPM_P1;HPM_P2
2022/11/04 00:01:31;;;;;;;9.40;4.43;;;;;;;;;;5033213;28;20206;-60
2022/11/04 00:03:57;;;;;;;10.63;4.63;;;;;;;;;;5033483;28;20240;-60
2022/11/04 00:06:23;;;;;;;16.73;5.67;;;;;;;;;;5033219;28;20225;-60
2022/11/04 00:08:53;;;;;;;14.07;5.77;;;10.10;99.90;;;;;;5032625;28;20192;-61
2022/11/04 00:14:13;;;;;;;11.77;5.80;;;;;;;;;;4995038;28;20369;-60
2022/11/04 00:19:24;;;;;;;16.77;6.00;;;;;;;;;;5033395;28;20180;-60
2022/11/04 00:30:04;;;;;;;17.30;4.80;;;;;;;;;;5033422;28;20270;-60
2022/11/04 00:35:16;;;;;;;8.70;4.17;;;;;;;;;;5033282;28;20292;-60
2022/11/04 00:37:42;;;;;;;11.60;4.40;;;;;;;;;;5033134;28;20182;-60
2022/11/04 00:40:10;;;;;;;15.60;5.17;;;;;;;;;;5031878;28;20176;-60
2022/11/04 00:42:36;;;;;;;16.07;4.37;;;;;;;;;;5033051;28;20977;-60
2022/11/04 00:45:02;;;;;;;15.30;5.10;;;;;;;;;;5032523;28;20173;-60
2022/11/04 00:47:28;;;;;;;10.63;5.10;;;;;;;;;;5033093;28;20189;-60
2022/11/04 00:49:54;;;;;;;9.43;4.67;;;;;;;;;;5032310;28;20625;-60
2022/11/04 00:52:20;;;;;;;12.63;4.40;;;;;;;;;;5032576;28;20190;-59
2022/11/04 00:54:46;;;;;;;10.17;4.40;;;;;;;;;;5032701;28;20649;-59
2022/11/04 00:57:13;;;;;;;14.13;4.00;;;;;;;;;;5032735;28;20225;-60
2022/11/04 00:59:39;;;;;;;10.30;4.23;;;;;;;;;;5032808;28;20181;-59
2022/11/04 01:02:06;;;;;;;12.13;3.60;;;;;;;;;;5032683;28;20566;-60
2022/11/04 01:04:32;;;;;;;9.13;3.97;;;;;;;;;;5032433;28;20680;-59
2022/11/04 01:06:58;;;;;;;12.70;4.10;;;;;;;;;;5032306;28;20182;-60
2022/11/04 01:09:24;;;;;;;10.73;4.60;;;;;;;;;;5028359;28;20174;-59
2022/11/04 01:11:50;;;;;;;16.00;4.37;;;;;;;;;;5029020;28;20201;-60
2022/11/04 01:14:16;;;;;;;10.93;3.73;;;;;;;;;;5029994;28;20213;-60
2022/11/04 01:16:43;;;;;;;9.93;4.17;;;;;;;;;;5030695;28;20196;-60
2022/11/04 01:19:09;;;;;;;12.90;4.17;;;;;;;;;;5015871;28;20229;-60
2022/11/04 01:21:35;;;;;;;17.20;4.60;;;;;;;;;;5029475;28;20243;-60
2022/11/04 01:24:01;;;;;;;11.00;4.17;;;;;;;;;;5032032;28;20186;-60
2022/11/04 01:26:28;;;;;;;9.50;3.87;;;;;;;;;;5031968;28;20227;-60
2022/11/04 01:28:54;;;;;;;18.83;4.37;;;;;;;;;;5032270;28;20190;-61
2022/11/04 01:31:25;;;;;;;10.63;3.57;;;9.30;99.90;;;;;;5032573;28;20173;-60
2022/11/04 01:33:53;;;;;;;8.97;3.50;;;9.30;99.90;;;;;;5032161;28;20270;-60
2022/11/04 01:36:19;;;;;;;9.20;3.40;;;9.50;99.90;;;;;;5031589;28;20177;-60
2022/11/04 01:38:46;;;;;;;10.77;3.20;;;;;;;;;;5014465;28;20174;-60
2022/11/04 01:41:25;;;;;;;8.50;3.37;;;;;;;;;;5031923;28;20193;-60
2022/11/04 01:43:55;;;;;;;8.67;2.97;;;;;;;;;;5031990;28;20240;-60
2022/11/04 01:46:21;;;;;;;9.83;3.67;;;;;;;;;;5031936;28;20174;-60
2022/11/04 01:48:48;;;;;;;13.53;3.73;;;9.40;99.90;;;;;;5031787;28;20231;-60
2022/11/04 01:51:14;;;;;;;11.17;2.73;;;;;;;;;;5030972;28;20185;-60
2022/11/04 01:53:42;;;;;;;8.03;2.70;;;;;;;;;;5013734;28;20533;-60
2022/11/04 01:56:11;;;;;;;13.43;2.93;;;9.30;99.90;;;;;;5013753;28;20217;-60
2022/11/04 01:58:42;;;;;;;7.77;2.77;;;9.20;99.90;;;;;;5031428;28;20189;-60
2022/11/04 02:01:10;;;;;;;9.70;2.53;;;9.20;99.90;;;;;;5031524;28;20185;-60
2022/11/04 02:03:38;;;;;;;8.67;3.00;;;;;;;;;;5031661;28;20710;-60
2022/11/04 02:06:05;;;;;;;10.63;3.27;;;9.20;99.90;;;;;;5023936;28;20701;-60
2022/11/04 02:08:31;;;;;;;7.63;2.63;;;;;;;;;;5030408;28;20189;-60
2022/11/04 02:10:59;;;;;;;15.63;3.07;;;9.20;99.90;;;;;;5030337;28;20189;-60
2022/11/04 02:13:26;;;;;;;9.03;3.30;;;9.20;99.90;;;;;;5026160;28;20185;-60
2022/11/04 02:16:08;;;;;;;10.80;3.37;;;9.30;99.90;;;;;;5024626;28;20267;-60
2022/11/04 02:18:45;;;;;;;10.70;3.93;;;;;;;;;;5031462;28;20544;-60
2022/11/04 02:21:35;;;;;;;8.87;3.27;;;9.10;99.90;;;;;;5031091;28;20197;-59
2022/11/04 02:24:04;;;;;;;12.13;3.23;;;8.90;99.90;;;;;;5031145;28;20196;-59
2022/11/04 02:26:41;;;;;;;8.90;3.10;;;;;;;;;;5030955;28;20188;-59
2022/11/04 02:29:10;;;;;;;9.47;3.67;;;;;;;;;;5031259;28;20173;-59
2022/11/04 02:31:54;;;;;;;13.67;3.53;;;;;;;;;;5030989;28;20515;-59
2022/11/04 02:34:20;;;;;;;14.73;3.73;;;;;;;;;;5030979;28;20177;-59
2022/11/04 02:37:11;;;;;;;13.50;4.33;;;8.70;99.90;;;;;;5030689;28;20515;-60
2022/11/04 02:39:50;;;;;;;9.70;3.93;;;;;;;;;;5030440;28;20197;-60
2022/11/04 02:42:28;;;;;;;15.37;4.40;;;;;;;;;;5019124;28;20576;-60
2022/11/04 02:45:03;;;;;;;14.53;4.13;;;;;;;;;;5029743;28;20628;-60
2022/11/04 02:47:30;;;;;;;11.37;4.63;;;;;;;;;;5027302;28;20182;-60
2022/11/04 02:50:15;;;;;;;12.70;4.23;;;8.80;99.90;;;;;;5030782;28;20209;-60
2022/11/04 02:52:41;;;;;;;12.43;4.23;;;;;;;;;;5030938;28;20205;-60
2022/11/04 02:55:13;;;;;;;14.27;4.77;;;8.60;99.90;;;;;;5014851;28;20660;-60
2022/11/04 02:57:42;;;;;;;13.90;4.37;;;8.50;99.90;;;;;;5030269;28;20221;-60
2022/11/04 03:00:12;;;;;;;17.03;4.77;;;8.60;99.90;;;;;;5006733;28;20267;-60
2022/11/04 03:02:54;;;;;;;17.37;5.23;;;8.50;99.90;;;;;;5030324;28;20221;-59
2022/11/04 03:05:26;;;;;;;13.63;5.43;;;8.50;99.90;;;;;;5024026;28;20273;-60
2022/11/04 03:07:55;;;;;;;15.87;5.00;;;;;;;;;;5030559;28;20323;-60
2022/11/04 03:10:28;;;;;;;16.70;5.30;;;;;;;;;;5030323;28;20343;-60
2022/11/04 03:12:57;;;;;;;14.47;6.40;;;;;;;;;;5014130;28;20647;-60
2022/11/04 03:15:26;;;;;;;12.27;6.07;;;;;;;;;;5029976;28;20185;-60
2022/11/04 03:17:56;;;;;;;17.17;5.93;;;;;;;;;;5033914;28;20644;-60
2022/11/04 03:20:26;;;;;;;18.23;6.57;;;8.30;99.90;;;;;;5034277;28;20196;-60
2022/11/04 03:22:54;;;;;;;17.03;6.73;;;;;;;;;;5033222;28;20221;-60
2022/11/04 03:25:21;;;;;;;18.87;6.83;;;;;;;;;;5033917;28;20174;-59
2022/11/04 03:28:13;;;;;;;20.17;6.90;;;;;;;;;;5033263;28;20182;-60
2022/11/04 03:30:40;;;;;;;17.80;7.40;;;;;;;;;;5032056;28;20637;-60
2022/11/04 03:33:17;;;;;;;19.93;7.07;;;8.30;99.90;;;;;;5034154;28;20851;-60
2022/11/04 03:35:43;;;;;;;23.63;7.50;;;;;;;;;;5033906;28;20287;-60
2022/11/04 03:38:09;;;;;;;22.17;7.37;;;;;;;;;;5034201;28;20176;-60
2022/11/04 03:40:35;;;;;;;19.00;7.43;;;;;;;;;;5033749;28;20178;-60
2022/11/04 03:43:11;;;;;;;27.63;8.03;;;8.20;99.90;;;;;;5033297;28;20685;-60
2022/11/04 03:45:38;;;;;;;19.43;7.80;;;8.10;99.90;;;;;;5033735;28;20186;-59
2022/11/04 03:48:05;;;;;;;28.60;8.77;;;;;;;;;;5034238;28;20742;-60
2022/11/04 03:50:32;;;;;;;25.47;8.67;;;;;;;;;;5016044;28;20182;-60
2022/11/04 03:52:59;;;;;;;24.87;8.70;;;;;;;;;;5033900;28;20272;-60
2022/11/04 03:55:30;;;;;;;26.73;8.53;;;;;;;;;;5026683;28;20731;-60
2022/11/04 03:57:59;;;;;;;23.73;8.13;;;;;;;;;;5030574;28;20301;-60
2022/11/04 04:00:28;;;;;;;19.13;8.67;;;8.10;99.90;;;;;;5032229;28;20178;-60
2022/11/04 04:02:54;;;;;;;29.10;8.63;;;;;;;;;;5029425;28;20218;-60
2022/11/04 04:05:30;;;;;;;26.70;8.67;;;8.00;99.90;;;;;;5033882;28;20178;-61
2022/11/04 04:08:31;;;;;;;22.73;9.00;;;8.10;99.90;;;;;;5033768;28;20182;-61
2022/11/04 04:11:00;;;;;;;33.73;9.33;;;;;;;;;;5029539;28;20264;-60
2022/11/04 04:13:39;;;;;;;23.53;8.90;;;;;;;;;;5034179;28;20170;-61
2022/11/04 04:16:14;;;;;;;20.37;8.13;;;8.00;99.90;;;;;;5033380;28;20721;-60
2022/11/04 04:19:07;;;;;;;24.17;8.27;;;7.80;99.90;;;;;;5033451;28;20177;-60
2022/11/04 04:21:52;;;;;;;25.83;8.90;;;8.00;99.90;;;;;;5032569;28;20205;-61
2022/11/04 04:29:52;;;;;;;26.40;8.23;;;7.90;99.90;;;;;;5030031;28;20693;-62
2022/11/04 04:32:21;;;;;;;30.07;8.63;;;7.80;99.90;;;;;;5033526;28;20208;-61
2022/11/04 04:34:47;;;;;;;25.60;8.27;;;;;;;;;;5032732;28;20239;-62
2022/11/04 04:37:21;;;;;;;22.07;8.20;;;;;;;;;;5032877;28;20170;-62
2022/11/04 04:45:38;;;;;;;23.17;8.30;;;7.90;99.90;;;;;;5033548;28;20236;-62
2022/11/04 04:48:05;;;;;;;29.93;8.73;;;;;;;;;;5013557;28;20174;-61
2022/11/04 04:50:34;;;;;;;32.27;8.70;;;;;;;;;;5022924;28;20661;-62
2022/11/04 04:53:02;;;;;;;25.87;8.77;;;;;;;;;;5030251;28;20233;-61
2022/11/04 04:55:30;;;;;;;29.27;8.73;;;;;;;;;;5033014;28;20181;-61
2022/11/04 04:57:56;;;;;;;35.97;9.67;;;;;;;;;;5031564;28;20287;-62
2022/11/04 05:00:23;;;;;;;37.17;8.87;;;;;;;;;;5032669;28;20261;-61
2022/11/04 05:02:49;;;;;;;34.83;9.93;;;;;;;;;;5031924;28;20236;-61
2022/11/04 05:05:16;;;;;;;27.67;9.17;;;;;;;;;;5032691;28;20181;-61
2022/11/04 05:07:42;;;;;;;35.07;9.97;;;;;;;;;;5032432;28;20588;-61
2022/11/04 05:10:09;;;;;;;23.27;9.57;;;7.70;99.90;;;;;;5032194;28;20220;-61
2022/11/04 05:15:21;;;;;;;33.00;10.20;;;;;;;;;;5032881;28;20185;-61
2022/11/04 05:17:47;;;;;;;30.90;10.33;;;;;;;;;;5032066;28;20174;-62
2022/11/04 05:20:13;;;;;;;24.97;9.90;;;;;;;;;;5032293;28;20176;-61
2022/11/04 05:22:39;;;;;;;31.57;10.43;;;;;;;;;;5031984;28;20621;-61
2022/11/04 05:25:05;;;;;;;24.40;9.50;;;7.70;99.90;;;;;;5032062;28;20174;-61
2022/11/04 05:27:32;;;;;;;24.00;10.37;;;;;;;;;;5031961;28;20189;-61
2022/11/04 05:29:58;;;;;;;24.10;8.90;;;;;;;;;;5031933;28;20654;-61
2022/11/04 05:32:24;;;;;;;32.83;10.37;;;;;;;;;;5031966;28;20209;-61
2022/11/04 05:34:50;;;;;;;33.60;9.53;;;;;;;;;;5031762;28;20185;-61
2022/11/04 05:37:16;;;;;;;27.97;9.47;;;;;;;;;;5031853;28;20178;-61
2022/11/04 05:39:42;;;;;;;28.90;9.73;;;;;;;;;;5031736;28;20181;-61
2022/11/04 05:42:08;;;;;;;29.97;9.87;;;;;;;;;;5031739;28;20209;-61
2022/11/04 05:44:34;;;;;;;22.90;9.20;;;;;;;;;;5031900;28;20184;-60
2022/11/04 05:47:00;;;;;;;30.53;9.63;;;;;;;;;;5031515;28;20253;-60
2022/11/04 05:49:26;;;;;;;28.10;9.27;;;;;;;;;;5024374;28;20730;-60
2022/11/04 05:51:52;;;;;;;25.57;8.87;;;;;;;;;;5022853;28;20213;-60
2022/11/04 05:54:18;;;;;;;33.23;9.37;;;;;;;;;;5019816;28;20268;-61
2022/11/04 05:56:44;;;;;;;28.17;9.53;;;;;;;;;;5030598;28;20304;-61
2022/11/04 05:59:10;;;;;;;26.37;9.23;;;;;;;;;;5031915;28;20603;-61
2022/11/04 06:01:38;;;;;;;26.70;8.47;;;7.30;99.90;;;;;;5031186;28;20319;-60
2022/11/04 06:04:05;;;;;;;36.40;9.03;;;7.00;99.90;;;;;;5031504;28;20197;-60
2022/11/04 06:06:33;;;;;;;32.47;9.87;;;7.10;99.90;;;;;;5031736;28;20185;-61
2022/11/04 06:09:00;;;;;;;28.30;9.77;;;;;;;;;;5031154;28;20649;-61
2022/11/04 06:11:27;;;;;;;24.33;8.60;;;;;;;;;;5029770;28;20173;-60
2022/11/04 06:13:53;;;;;;;25.37;8.83;;;;;;;;;;5030983;28;20190;-61
2022/11/04 06:16:19;;;;;;;30.50;8.43;;;;;;;;;;5030934;28;20185;-60
2022/11/04 06:18:45;;;;;;;24.80;7.47;;;7.30;99.90;;;;;;5013691;28;20655;-60
2022/11/04 06:21:11;;;;;;;25.43;8.17;;;;;;;;;;5031260;28;20252;-60
2022/11/04 06:23:37;;;;;;;27.97;8.07;;;;;;;;;;5031518;28;20181;-60
2022/11/04 06:26:03;;;;;;;28.13;7.67;;;;;;;;;;5031010;28;20189;-60
2022/11/04 06:28:29;;;;;;;20.53;7.07;;;;;;;;;;5030884;28;20181;-61
2022/11/04 06:30:57;;;;;;;22.90;6.60;;;7.20;99.90;;;;;;5031300;28;20256;-60
2022/11/04 06:33:23;;;;;;;28.40;7.10;;;;;;;;;;5030801;28;20181;-60
2022/11/04 06:35:49;;;;;;;25.23;6.80;;;;;;;;;;5030994;28;20182;-60
2022/11/04 06:38:15;;;;;;;28.17;7.57;;;;;;;;;;5030712;28;20192;-60
2022/11/04 06:40:41;;;;;;;18.73;6.00;;;;;;;;;;5031089;28;20695;-60
2022/11/04 06:43:07;;;;;;;25.73;6.27;;;;;;;;;;5023277;28;20227;-61
2022/11/04 06:45:33;;;;;;;32.60;6.40;;;;;;;;;;5031131;28;20249;-60
2022/11/04 06:47:59;;;;;;;29.20;6.97;;;;;;;;;;5031068;28;20213;-60
2022/11/04 06:50:25;;;;;;;28.80;6.17;;;;;;;;;;5030881;28;20162;-60
2022/11/04 06:52:51;;;;;;;26.43;6.07;;;;;;;;;;5030996;28;20173;-60
2022/11/04 06:55:17;;;;;;;23.87;5.57;;;;;;;;;;5031021;28;20644;-61
2022/11/04 06:57:43;;;;;;;21.33;6.20;;;;;;;;;;5030596;28;20209;-60
2022/11/04 07:00:10;;;;;;;31.27;5.90;;;7.30;99.90;;;;;;5030838;28;20228;-60
2022/11/04 07:02:37;;;;;;;22.40;5.80;;;7.30;99.90;;;;;;5030549;28;20213;-61
2022/11/04 07:05:03;;;;;;;20.13;6.10;;;;;;;;;;5029406;28;20529;-61
2022/11/04 07:07:29;;;;;;;27.77;6.13;;;;;;;;;;5013515;28;20182;-60
2022/11/04 07:09:56;;;;;;;26.80;6.30;;;;;;;;;;5030548;28;20174;-61
2022/11/04 07:12:23;;;;;;;30.03;6.07;;;;;;;;;;5030684;28;20213;-60
2022/11/04 07:14:49;;;;;;;29.03;6.20;;;;;;;;;;5030149;28;20185;-60
2022/11/04 07:17:15;;;;;;;27.47;6.50;;;;;;;;;;5030397;28;20248;-60
2022/11/04 07:19:41;;;;;;;34.10;6.70;;;;;;;;;;5030641;28;20178;-60
2022/11/04 07:22:07;;;;;;;21.37;5.87;;;;;;;;;;5029777;28;20919;-60
2022/11/04 07:24:34;;;;;;;22.20;5.40;;;;;;;;;;5030016;28;20178;-61
2022/11/04 07:27:00;;;;;;;19.63;5.40;;;;;;;;;;5012293;28;20216;-60
2022/11/04 07:29:27;;;;;;;25.37;5.87;;;;;;;;;;5030049;28;20188;-60
2022/11/04 07:31:53;;;;;;;25.43;6.07;;;;;;;;;;5030097;28;20170;-61
2022/11/04 07:34:19;;;;;;;16.50;4.57;;;;;;;;;;5030437;28;20174;-61
2022/11/04 07:36:46;;;;;;;24.77;4.50;;;;;;;;;;5029566;28;20170;-64
2022/11/04 07:39:12;;;;;;;24.13;5.40;;;;;;;;;;5022984;28;20209;-61
2022/11/04 07:41:38;;;;;;;26.73;4.93;;;;;;;;;;5030221;28;20259;-61
2022/11/04 07:44:04;;;;;;;25.67;4.80;;;;;;;;;;5025456;28;20201;-72
2022/11/04 07:46:31;;;;;;;26.50;5.17;;;;;;;;;;5026969;28;20723;-67
2022/11/04 07:48:57;;;;;;;18.47;4.27;;;;;;;;;;5030071;28;20174;-64
2022/11/04 07:51:24;;;;;;;18.30;4.87;;;;;;;;;;5022228;28;20186;-67
2022/11/04 07:53:50;;;;;;;21.23;4.80;;;;;;;;;;5030627;28;20315;-66
2022/11/04 07:56:17;;;;;;;23.17;4.47;;;;;;;;;;5029629;28;20704;-62
2022/11/04 07:58:44;;;;;;;22.67;4.97;;;;;;;;;;5027324;28;20343;-62
2022/11/04 08:01:12;;;;;;;19.70;4.23;;;;;;;;;;5014614;28;20178;-62
2022/11/04 08:03:38;;;;;;;20.87;8.03;;;;;;;;;;5012249;28;20232;-62
2022/11/04 08:06:05;;;;;;;22.77;4.50;;;;;;;;;;5031532;28;20260;-61
2022/11/04 08:08:31;;;;;;;18.33;4.60;;;;;;;;;;5032610;28;20166;-62
2022/11/04 08:11:06;;;;;;;23.00;5.07;;;8.70;99.90;;;;;;5033963;28;20197;-62
2022/11/04 08:13:33;;;;;;;16.17;4.43;;;;;;;;;;5033389;28;20197;-62
2022/11/04 08:16:05;;;;;;;18.63;5.13;;;9.60;99.90;;;;;;5033845;28;20257;-62
2022/11/04 08:18:32;;;;;;;17.93;4.07;;;;;;;;;;5033301;28;20216;-63
2022/11/04 08:20:59;;;;;;;20.80;4.37;;;;;;;;;;5032553;28;20197;-63
2022/11/04 08:23:25;;;;;;;25.67;4.47;;;;;;;;;;5024020;28;20236;-63
2022/11/04 08:25:51;;;;;;;15.33;2.93;;;;;;;;;;5026033;28;20353;-65
2022/11/04 08:28:17;;;;;;;12.03;3.33;;;;;;;;;;5031771;28;20170;-64
2022/11/04 08:30:52;;;;;;;8.60;2.93;;;;;;;;;;5032127;28;20170;-64
2022/11/04 08:33:18;;;;;;;15.83;3.63;;;;;;;;;;5026340;28;20375;-66
2022/11/04 08:35:44;;;;;;;12.20;3.73;;;;;;;;;;5031955;28;20211;-65
2022/11/04 08:38:10;;;;;;;16.80;3.40;;;;;;;;;;5019542;28;20258;-64
2022/11/04 08:40:36;;;;;;;10.27;2.60;;;;;;;;;;5025989;28;20170;-64
2022/11/04 08:43:02;;;;;;;20.97;3.17;;;;;;;;;;5030056;28;20279;-64
2022/11/04 08:45:28;;;;;;;10.77;3.47;;;9.80;99.90;;;;;;5032806;28;20668;-65
2022/11/04 08:47:54;;;;;;;13.43;3.07;;;;;;;;;;5014981;28;20190;-65
2022/11/04 08:50:26;;;;;;;12.17;3.07;;;;;;;;;;5032543;28;20633;-65
2022/11/04 08:52:52;;;;;;;10.83;3.13;;;;;;;;;;5032845;28;20189;-65
2022/11/04 08:55:18;;;;;;;11.10;2.13;;;;;;;;;;5029948;28;20181;-65
2022/11/04 08:57:44;;;;;;;15.90;2.40;;;;;;;;;;5032212;28;20245;-66
2022/11/04 09:00:11;;;;;;;7.30;1.97;;;;;;;;;;5032630;28;20633;-65
2022/11/04 09:02:37;;;;;;;13.00;2.03;;;;;;;;;;5032645;28;20205;-65
2022/11/04 09:05:03;;;;;;;12.97;1.97;;;;;;;;;;5031735;28;20817;-63
2022/11/04 09:07:29;;;;;;;11.80;2.10;;;;;;;;;;5031937;28;20265;-64
2022/11/04 09:09:55;;;;;;;9.00;2.10;;;;;;;;;;5032256;28;20174;-64
2022/11/04 09:12:21;;;;;;;6.43;1.70;;;;;;;;;;5032490;28;20278;-63
2022/11/04 09:14:47;;;;;;;9.53;1.80;;;;;;;;;;5031663;28;20182;-63
2022/11/04 09:17:14;;;;;;;6.87;1.50;;;;;;;;;;5031952;28;20180;-62
2022/11/04 09:19:40;;;;;;;12.17;1.93;;;;;;;;;;5032086;28;20248;-63
2022/11/04 09:22:06;;;;;;;13.03;2.40;;;;;;;;;;5031462;28;20699;-64
2022/11/04 09:24:32;;;;;;;7.93;2.00;;;;;;;;;;5032196;28;20173;-64
2022/11/04 09:26:58;;;;;;;8.00;1.90;;;;;;;;;;5032287;28;20166;-64
2022/11/04 09:29:24;;;;;;;19.27;2.20;;;;;;;;;;5022273;28;20217;-64
2022/11/04 09:31:50;;;;;;;9.03;1.97;;;;;;;;;;5013819;28;20185;-66
2022/11/04 09:34:16;;;;;;;6.37;1.63;;;;;;;;;;5014267;28;20590;-65
2022/11/04 09:36:43;;;;;;;10.60;1.60;;;;;;;;;;5025530;28;20174;-65
2022/11/04 09:39:09;;;;;;;15.13;2.00;;;;;;;;;;5031216;28;20174;-64
2022/11/04 09:41:55;;;;;;;5.83;1.60;;;10.60;99.90;;;;;;5031111;28;20278;-64
2022/11/04 09:44:37;;;;;;;12.07;1.50;;;10.80;99.90;;;;;;5031690;28;20178;-64
2022/11/04 09:47:03;;;;;;;6.37;1.50;;;;;;;;;;5031606;28;20204;-64
2022/11/04 09:49:32;;;;;;;7.63;1.00;;;;;;;;;;5032126;28;20170;-64
2022/11/04 09:51:58;;;;;;;7.07;1.23;;;;;;;;;;5031343;28;20192;-64
2022/11/04 09:54:25;;;;;;;5.50;1.20;;;;;;;;;;5031484;28;20185;-64
2022/11/04 09:56:52;;;;;;;6.57;1.00;;;;;;;;;;5031211;28;20312;-64
2022/11/04 09:59:25;;;;;;;8.90;1.13;;;;;;;;;;5031615;28;20166;-65
2022/11/04 10:01:56;;;;;;;3.07;1.23;;;11.50;99.90;;;;;;5013567;28;20252;-64
2022/11/04 10:04:31;;;;;;;9.23;1.40;;;;;;;;;;5013877;28;20273;-64
2022/11/04 10:07:19;;;;;;;9.53;1.13;;;11.80;99.90;;;;;;5031583;28;20169;-64
2022/11/04 10:09:54;;;;;;;6.90;1.27;;;;;;;;;;5031447;28;20208;-63
2022/11/04 10:12:41;;;;;;;7.23;1.23;;;;;;;;;;5030674;28;20181;-64
2022/11/04 10:15:11;;;;;;;10.13;1.13;;;;;;;;;;5031193;28;20177;-64
2022/11/04 10:17:40;;;;;;;10.50;1.10;;;;;;;;;;5031015;28;20649;-65
2022/11/04 10:20:15;;;;;;;10.20;1.03;;;;;;;;;;5030733;28;20624;-64
2022/11/04 10:22:53;;;;;;;6.97;1.23;;;;;;;;;;5028260;28;20217;-64
2022/11/04 10:25:24;;;;;;;10.33;1.50;;;;;;;;;;5025573;28;20323;-63
2022/11/04 10:27:51;;;;;;;11.10;1.70;;;;;;;;;;5030607;28;20642;-64
2022/11/04 10:30:24;;;;;;;5.20;1.20;;;12.30;99.90;;;;;;5030604;28;20255;-64
2022/11/04 10:32:53;;;;;;;7.93;1.43;;;;;;;;;;5030180;28;20212;-64
2022/11/04 10:35:40;;;;;;;6.33;1.17;;;;;;;;;;5017219;28;20188;-64
2022/11/04 10:38:25;;;;;;;5.57;1.23;;;;;;;;;;5030847;28;20539;-66
2022/11/04 10:40:53;;;;;;;2.87;1.10;;;;;;;;;;5030705;28;20177;-64
2022/11/04 10:43:27;;;;;;;3.27;1.10;;;;;;;;;;5018710;28;20206;-64
2022/11/04 10:46:08;;;;;;;6.57;1.20;;;;;;;;;;5030936;28;20174;-64
2022/11/04 10:49:04;;;;;;;5.50;1.20;;;13.30;99.90;;;;;;5031130;28;20166;-64
2022/11/04 10:51:31;;;;;;;4.30;1.27;;;;;;;;;;5004328;28;20221;-64
2022/11/04 10:53:58;;;;;;;8.80;1.33;;;;;;;;;;5029695;28;20261;-64
2022/11/04 10:56:38;;;;;;;11.43;1.70;;;14.00;99.90;;;;;;5030440;28;20237;-64
2022/11/04 10:59:31;;;;;;;5.10;1.30;;;14.20;99.90;;;;;;5031106;28;20223;-65
2022/11/04 11:01:59;;;;;;;6.90;1.85;;;14.60;99.90;;;;;;5030846;28;20664;-64
2022/11/04 11:04:28;;;;;;;6.50;1.30;;;16.00;99.90;;;;;;5030785;28;20184;-64
2022/11/04 11:06:56;;;;;;;5.45;1.15;;;19.70;99.90;;;;;;5030158;28;20690;-64
2022/11/04 11:09:31;;;;;;;4.80;1.13;;;19.60;99.90;;;;;;5013155;28;20208;-64
2022/11/04 11:12:03;;;;;;;7.18;1.48;;;22.50;99.90;;;;;;5030833;28;20204;-65
2022/11/04 11:14:29;;;;;;;7.72;1.35;;;;;;;;;;5030817;28;20170;-63
2022/11/04 11:16:57;;;;;;;4.35;1.20;;;;;;;;;;5031047;28;20174;-62
2022/11/04 11:19:24;;;;;;;11.23;1.52;;;;;;;;;;5029039;28;20170;-63
2022/11/04 11:21:53;;;;;;;6.30;1.70;;;26.00;99.90;;;;;;5028769;28;20212;-63
2022/11/04 11:24:19;;;;;;;5.95;1.30;;;;;;;;;;5028804;28;20676;-64
2022/11/04 11:26:49;;;;;;;4.47;1.30;;;25.80;99.90;;;;;;5028700;28;20186;-63
2022/11/04 11:29:26;;;;;;;7.10;1.63;;;;;;;;;;5028823;28;20257;-64
2022/11/04 11:31:53;;;;;;;5.28;1.40;;;;;;;;;;5029172;28;20176;-64
2022/11/04 11:34:27;;;;;;;6.93;1.60;;;25.30;99.90;;;;;;5028500;28;20178;-64
2022/11/04 11:36:56;;;;;;;6.13;1.77;;;27.10;99.90;;;;;;5011452;28;20182;-63
2022/11/04 11:39:29;;;;;;;5.45;1.33;;;27.00;99.90;;;;;;5022291;28;20177;-64
2022/11/04 11:42:03;;;;;;;7.68;1.50;;;26.90;99.90;;;;;;5016622;28;20577;-63
2022/11/04 11:44:53;;;;;;;4.47;1.40;;;27.20;99.90;;;;;;5034355;28;20174;-63
2022/11/04 11:47:29;;;;;;;6.60;1.50;;;27.70;99.90;;;;;;5034334;28;20193;-63
2022/11/04 11:50:14;;;;;;;7.50;1.30;;;27.00;99.90;;;;;;5034433;28;20220;-63
2022/11/04 11:52:41;;;;;;;4.93;1.30;;;28.50;99.90;;;;;;5034085;28;20178;-63
2022/11/04 11:55:34;;;;;;;8.82;1.70;;;28.00;99.90;;;;;;5034313;28;20173;-63
2022/11/04 11:58:21;;;;;;;7.15;1.42;;;28.10;99.90;;;;;;5026039;28;20228;-63
2022/11/04 12:01:07;;;;;;;9.57;1.60;;;28.80;99.90;;;;;;5034189;28;20193;-63
2022/11/04 12:03:47;;;;;;;7.40;1.70;;;29.10;99.90;;;;;;5016277;28;20210;-63
2022/11/04 12:06:24;;;;;;;7.63;1.45;;;29.60;99.90;;;;;;5033949;28;20227;-65
2022/11/04 12:09:08;;;;;;;8.77;1.50;;;30.30;99.90;;;;;;5034070;28;20179;-64
2022/11/04 12:11:55;;;;;;;7.85;1.20;;;29.10;99.90;;;;;;5033987;28;20231;-64
2022/11/04 12:14:39;;;;;;;6.28;1.50;;;29.80;99.90;;;;;;5033640;28;20188;-64
2022/11/04 12:17:34;;;;;;;5.80;1.33;;;30.00;99.90;;;;;;5033828;28;20243;-64
2022/11/04 12:20:04;;;;;;;5.15;2.08;;;;;;;;;;5033753;28;20200;-64
2022/11/04 12:22:44;;;;;;;5.97;1.45;;;29.30;99.90;;;;;;5033303;28;20347;-64
2022/11/04 12:25:35;;;;;;;6.35;1.75;;;29.10;99.90;;;;;;5033775;28;20181;-63
2022/11/04 12:28:32;;;;;;;6.97;2.10;;;28.30;99.90;;;;;;5033726;28;20178;-63
2022/11/04 12:31:19;;;;;;;4.85;1.20;;;26.20;99.90;;;;;;5010461;28;20182;-64
2022/11/04 12:34:08;;;;;;;4.00;1.17;;;22.90;99.90;;;;;;5033788;28;20265;-63
2022/11/04 12:36:34;;;;;;;7.90;1.17;;;;;;;;;;5033421;28;20174;-63
2022/11/04 12:39:28;;;;;;;6.43;1.40;;;23.60;99.90;;;;;;5033380;28;20177;-64
2022/11/04 12:42:20;;;;;;;3.95;1.20;;;21.40;99.90;;;;;;5033601;28;20212;-64
2022/11/04 12:45:15;;;;;;;5.70;1.35;;;;;;;;;;5033369;28;20174;-64
2022/11/04 12:47:46;;;;;;;7.28;1.10;;;20.00;99.90;;;;;;5016110;28;20217;-64
2022/11/04 12:50:31;;;;;;;6.47;1.60;;;;;;;;;;5032453;28;20189;-64
2022/11/04 12:53:02;;;;;;;5.28;1.38;;;18.00;99.90;;;;;;5032992;28;20231;-63
2022/11/04 12:55:28;;;;;;;6.05;1.45;;;;;;;;;;5033148;28;20511;-63
2022/11/04 12:57:55;;;;;;;4.57;1.40;;;;;;;;;;5032779;28;20292;-64
2022/11/04 13:00:24;;;;;;;9.07;1.50;;;;;;;;;;5032796;28;20235;-64
2022/11/04 13:03:08;;;;;;;7.78;1.60;;;;;;;;;;5032827;28;20210;-64
2022/11/04 13:06:04;;;;;;;4.90;1.35;;;;;;;;;;5032870;28;20728;-65
2022/11/04 13:09:00;;;;;;;8.10;1.40;;;21.00;99.90;;;;;;5016207;28;20188;-65
2022/11/04 13:11:40;;;;;;;6.70;2.13;;;;;;;;;;5032926;28;20182;-64
2022/11/04 13:14:06;;;;;;;5.85;3.13;;;;;;;;;;5032880;28;20186;-65
2022/11/04 13:16:34;;;;;;;5.18;1.13;;;;;;;;;;5026277;28;20777;-65
2022/11/04 13:19:01;;;;;;;6.05;1.40;;;;;;;;;;5032084;28;20170;-65
2022/11/04 13:21:33;;;;;;;7.78;1.40;;;22.20;99.90;;;;;;5031345;28;20284;-65
2022/11/04 13:24:22;;;;;;;9.60;2.03;;;;;;;;;;5026338;28;20247;-65
2022/11/04 13:26:50;;;;;;;6.60;1.10;;;21.10;99.90;;;;;;5021297;28;20189;-65
2022/11/04 13:29:20;;;;;;;4.60;1.23;;;22.00;99.90;;;;;;5032030;28;20247;-65
2022/11/04 13:31:46;;;;;;;7.65;1.13;;;;;;;;;;5032499;28;20180;-65
2022/11/04 13:34:27;;;;;;;3.80;0.90;;;24.90;99.90;;;;;;5031226;28;20166;-64
2022/11/04 13:37:10;;;;;;;5.43;1.27;;;24.30;99.90;;;;;;5027162;28;20707;-63
2022/11/04 13:39:43;;;;;;;6.43;1.40;;;;;;;;;;5031755;28;20247;-65
2022/11/04 13:42:17;;;;;;;6.85;3.42;;;21.00;99.90;;;;;;5032005;28;20692;-64
2022/11/04 13:44:44;;;;;;;22.42;8.90;;;;;;;;;;5031981;28;20248;-65
2022/11/04 13:47:17;;;;;;;77.80;36.20;;;;;;;;;;5031756;28;20173;-64
2022/11/04 13:49:49;;;;;;;28.77;13.52;;;21.40;99.90;;;;;;5032127;28;20220;-65
2022/11/04 13:52:15;;;;;;;13.65;6.13;;;;;;;;;;5031992;28;20264;-64
2022/11/04 13:54:46;;;;;;;24.40;9.52;;;;;;;;;;5031652;28;20227;-64
2022/11/04 13:57:15;;;;;;;11.88;2.08;;;;;;;;;;5031083;28;20229;-63
2022/11/04 13:59:43;;;;;;;19.15;7.40;;;;;;;;;;5031207;28;20184;-63
2022/11/04 14:02:11;;;;;;;5.45;1.73;;;20.50;99.90;;;;;;5026502;28;20278;-65
2022/11/04 14:04:39;;;;;;;7.00;2.50;;;21.10;99.90;;;;;;5026209;28;20672;-65
2022/11/04 14:07:09;;;;;;;8.85;1.10;;;19.60;99.90;;;;;;5030937;28;20170;-64
2022/11/04 14:09:35;;;;;;;3.22;1.08;;;;;;;;;;5030672;28;20173;-63
2022/11/04 14:12:12;;;;;;;4.45;1.52;;;19.10;99.90;;;;;;5031720;28;20170;-63
2022/11/04 14:14:43;;;;;;;7.43;1.17;;;20.20;99.90;;;;;;5013750;28;20205;-63
2022/11/04 14:17:34;;;;;;;6.70;1.30;;;20.60;99.90;;;;;;5031392;28;20637;-64
2022/11/04 14:20:21;;;;;;;3.10;0.77;;;20.80;99.90;;;;;;5016246;28;20586;-64
2022/11/04 14:22:58;;;;;;;6.95;1.20;;;;;;;;;;5011542;28;20220;-63
2022/11/04 14:25:26;;;;;;;8.07;1.23;;;;;;;;;;5022247;28;20177;-64
2022/11/04 14:27:53;;;;;;;3.05;0.80;;;;;;;;;;5030864;28;20166;-64
2022/11/04 14:30:44;;;;;;;5.90;1.05;;;21.60;99.90;;;;;;5031248;28;20169;-64
2022/11/04 14:33:28;;;;;;;4.13;0.60;;;20.90;99.90;;;;;;5031299;28;20205;-64
2022/11/04 14:35:55;;;;;;;4.13;0.90;;;;;;;;;;5031137;28;20162;-64
2022/11/04 14:38:28;;;;;;;2.35;0.90;;;20.30;99.90;;;;;;5029955;28;20197;-64
2022/11/04 14:41:13;;;;;;;5.65;0.70;;;20.70;99.90;;;;;;5013436;28;20556;-64
2022/11/04 14:43:41;;;;;;;4.47;0.70;;;;;;;;;;5027993;28;20706;-64
2022/11/04 14:46:07;;;;;;;3.10;0.60;;;18.60;99.90;;;;;;5031086;28;20174;-63
2022/11/04 14:48:34;;;;;;;4.25;0.75;;;17.80;99.90;;;;;;5030731;28;20166;-63